Time;durP1;ratioP1;P1;durP2;ratioP2;P2;SDS_P1;SDS_P2;PMS_P1;PMS_P2;Temp;Humidity;BMP_temperature;BMP_pressure;BME280_temperature;BME280_humidity;BME280_pressure;Samples;Min_cycle;Max_cycle;Signal;HPM_P1;HPM_P2
2021/08/19 00:00:10;;;;;;;;;2.75;2.75;;;;;21.13;51.28;101269.22;5080723;28;45465;-49
2021/08/19 00:02:36;;;;;;;;;5.75;3.00;;;;;21.13;50.75;101272.78;5080690;28;46332;-47
2021/08/19 00:05:02;;;;;;;;;3.25;3.00;;;;;21.11;51.30;101269.28;5082155;28;45472;-50
2021/08/19 00:07:27;;;;;;;;;4.00;4.00;;;;;21.10;51.01;101267.56;5082212;28;45319;-48
2021/08/19 00:09:55;;;;;;;;;3.00;3.00;;;;;21.09;51.37;101271.16;5081722;28;45311;-45
2021/08/19 00:12:20;;;;;;;;;4.00;4.00;;;;;21.06;51.01;101271.34;5081981;28;47020;-47
2021/08/19 00:14:46;;;;;;;;;4.50;2.25;;;;;21.05;51.26;101270.44;5081780;28;45228;-50
2021/08/19 00:17:11;;;;;;;;;3.00;2.00;;;;;21.03;51.35;101266.13;5082127;28;45149;-50
2021/08/19 00:19:36;;;;;;;;;4.50;4.00;;;;;21.01;51.37;101263.53;5081625;28;45507;-49
2021/08/19 00:22:03;;;;;;;;;4.25;4.25;;;;;20.99;51.15;101272.56;5081602;28;45454;-48
2021/08/19 00:24:29;;;;;;;;;3.50;3.00;;;;;20.96;51.64;101265.59;5081771;28;45204;-51
2021/08/19 00:26:54;;;;;;;;;3.00;3.00;;;;;20.93;51.11;101263.94;5081835;28;45201;-49
2021/08/19 00:29:19;;;;;;;;;6.00;4.75;;;;;20.91;51.58;101257.78;5081646;28;45490;-50
2021/08/19 00:31:45;;;;;;;;;2.25;2.00;;;;;20.88;51.64;101249.94;5081748;27;46003;-46
2021/08/19 00:34:10;;;;;;;;;2.50;2.50;;;;;20.88;51.23;101247.25;5080017;28;45310;-49
2021/08/19 00:36:36;;;;;;;;;2.75;2.75;;;;;20.90;51.70;101252.53;5081997;28;45288;-46
2021/08/19 00:39:02;;;;;;;;;3.00;3.00;;;;;20.88;51.22;101244.59;5081675;28;45580;-50
2021/08/19 00:41:27;;;;;;;;;4.00;3.00;;;;;20.90;51.61;101239.16;5081610;27;45445;-48
2021/08/19 00:43:56;;;;;;;;;2.25;2.25;;;;;20.89;51.13;101234.75;5081229;28;45314;-47
2021/08/19 00:46:31;;;;;;;;;3.00;3.00;;;;;20.85;51.79;101238.53;5081995;28;45352;-51
2021/08/19 00:49:07;;;;;;;;;3.00;3.00;;;;;20.84;51.58;101245.69;5062973;28;45431;-49
2021/08/19 00:51:37;;;;;;;;;3.50;3.00;;;;;20.82;51.62;101241.34;5081167;27;47187;-49
2021/08/19 00:54:11;;;;;;;;;4.25;4.00;;;;;20.82;51.69;101238.66;5081585;28;45419;-51
2021/08/19 00:56:37;;;;;;;;;3.25;3.25;;;;;20.81;51.67;101247.66;5081106;28;45375;-48
2021/08/19 00:59:07;;;;;;;;;3.00;2.25;;;;;20.77;51.23;101244.25;5080778;28;45510;-51
2021/08/19 01:01:34;;;;;;;;;3.00;3.00;;;;;20.75;51.37;101238.13;5081053;28;46253;-51
2021/08/19 01:03:59;;;;;;;;;3.00;3.00;;;;;20.74;51.26;101237.28;5081260;28;45318;-51
2021/08/19 01:06:25;;;;;;;;;3.25;3.25;;;;;20.74;51.76;101233.72;5079887;28;45362;-51
2021/08/19 01:08:52;;;;;;;;;2.75;2.75;;;;;20.73;51.78;101235.53;5079918;28;45355;-50
2021/08/19 01:11:18;;;;;;;;;3.00;2.00;;;;;20.72;51.84;101228.47;5080948;27;45406;-49
2021/08/19 01:13:44;;;;;;;;;3.25;3.00;;;;;20.72;51.35;101230.28;5081065;28;45378;-50
2021/08/19 01:16:09;;;;;;;;;2.50;2.00;;;;;20.72;51.45;101228.47;5081147;28;45307;-49
2021/08/19 01:18:43;;;;;;;;;5.00;4.00;;;;;20.72;51.44;101233.78;5079783;28;45458;-50
2021/08/19 01:21:11;;;;;;;;;3.00;3.00;;;;;20.69;51.58;101228.59;5080882;28;46280;-49
2021/08/19 01:23:38;;;;;;;;;4.00;4.00;;;;;20.70;51.96;101227.63;5061652;28;45260;-46
2021/08/19 01:26:07;;;;;;;;;4.00;4.00;;;;;20.65;51.89;101223.47;5079389;28;45442;-50
2021/08/19 01:28:34;;;;;;;;;3.50;3.25;;;;;20.67;51.47;101225.13;5079345;28;45571;-46
2021/08/19 01:31:00;;;;;;;;;2.00;2.00;;;;;20.64;51.84;101219.94;5079033;28;45246;-51
2021/08/19 01:33:25;;;;;;;;;2.25;2.25;;;;;20.63;52.09;101223.53;5079267;28;45249;-57
2021/08/19 01:35:51;;;;;;;;;4.00;4.00;;;;;20.61;52.18;101225.41;5079325;27;45181;-50
2021/08/19 01:38:17;;;;;;;;;3.00;2.00;;;;;20.59;51.69;101220.16;5079713;28;45350;-47
2021/08/19 01:40:42;;;;;;;;;2.75;2.75;;;;;20.55;51.52;101218.59;5078917;28;46230;-46
2021/08/19 01:43:10;;;;;;;;;3.00;3.00;;;;;20.50;52.01;101211.72;5079278;28;45228;-45
2021/08/19 01:45:36;;;;;;;;;4.25;3.25;;;;;20.50;52.11;101215.25;5079104;28;45258;-45
2021/08/19 01:48:01;;;;;;;;;3.75;3.00;;;;;20.45;52.19;101215.50;5077494;28;45903;-46
2021/08/19 01:50:26;;;;;;;;;2.50;2.50;;;;;20.44;51.58;101219.09;5077609;28;46163;-46
2021/08/19 01:52:52;;;;;;;;;3.00;2.25;;;;;20.45;51.77;101218.16;5079316;28;45394;-46
2021/08/19 01:55:17;;;;;;;;;5.25;3.00;;;;;20.44;51.47;101216.44;5079014;28;45789;-48
2021/08/19 01:57:42;;;;;;;;;3.00;3.00;;;;;20.41;51.59;101208.53;5079015;28;45382;-48
2021/08/19 02:00:08;;;;;;;;;2.00;2.00;;;;;20.41;51.51;101218.38;5078695;27;45216;-47
2021/08/19 02:02:34;;;;;;;;;4.50;2.00;;;;;20.38;51.96;101214.03;5078979;28;45275;-48
2021/08/19 02:04:59;;;;;;;;;2.00;2.00;;;;;20.38;51.64;101219.38;5078878;28;45250;-49
2021/08/19 02:07:24;;;;;;;;;3.00;3.00;;;;;20.38;51.51;101219.38;5079071;28;45434;-47
2021/08/19 02:09:49;;;;;;;;;2.75;2.50;;;;;20.35;52.05;101216.88;5077602;28;46134;-47
2021/08/19 02:12:15;;;;;;;;;2.00;2.00;;;;;20.35;51.63;101213.31;5057157;28;45247;-45
2021/08/19 02:14:40;;;;;;;;;5.00;2.75;;;;;20.34;52.12;101209.81;5076359;28;45485;-48
2021/08/19 02:17:06;;;;;;;;;5.00;3.25;;;;;20.30;51.58;101205.53;5079032;28;45233;-48
2021/08/19 02:19:31;;;;;;;;;3.00;3.00;;;;;20.29;52.10;101212.69;5078366;28;45236;-47
2021/08/19 02:21:56;;;;;;;;;2.50;2.25;;;;;20.28;52.16;101210.94;5036473;27;1156280;-48
2021/08/19 02:24:22;;;;;;;;;3.25;3.25;;;;;20.26;51.71;101209.28;5080219;28;45738;-47
2021/08/19 02:26:47;;;;;;;;;1.75;1.75;;;;;20.25;51.53;101215.56;5080302;28;45510;-45
2021/08/19 02:29:13;;;;;;;;;5.25;5.00;;;;;20.22;51.36;101213.06;5079775;28;46211;-46
2021/08/19 02:31:40;;;;;;;;;4.25;3.00;;;;;20.20;51.60;101212.25;5080098;28;45409;-47
2021/08/19 02:34:06;;;;;;;;;3.25;2.00;;;;;20.16;51.92;101208.84;5079774;28;45407;-48
2021/08/19 02:36:31;;;;;;;;;3.75;3.75;;;;;20.19;51.90;101207.84;5080009;28;45552;-48
2021/08/19 02:38:57;;;;;;;;;3.25;3.25;;;;;20.17;51.57;101207.91;5079782;28;45724;-45
2021/08/19 02:41:22;;;;;;;;;3.00;3.00;;;;;20.17;52.09;101204.41;5079932;28;45377;-45
2021/08/19 02:43:47;;;;;;;;;3.00;2.00;;;;;20.18;51.63;101203.47;5079756;28;45312;-48
2021/08/19 02:46:13;;;;;;;;;2.00;2.00;;;;;20.16;51.89;101197.31;5079973;28;45316;-47
2021/08/19 02:48:39;;;;;;;;;2.00;2.00;;;;;20.16;51.57;101195.50;5078067;28;47880;-46
2021/08/19 02:51:05;;;;;;;;;2.00;2.00;;;;;20.16;52.05;101192.00;5078632;27;45347;-48
2021/08/19 02:53:30;;;;;;;;;2.75;2.75;;;;;20.12;52.09;101191.28;5079693;28;45282;-46
2021/08/19 02:55:56;;;;;;;;;3.75;2.75;;;;;20.13;52.18;101187.66;5079907;28;45240;-46
2021/08/19 02:58:21;;;;;;;;;1.25;1.25;;;;;20.14;51.69;101184.06;5079449;28;45295;-49
2021/08/19 03:00:47;;;;;;;;;2.00;2.00;;;;;20.15;51.56;101185.81;5079852;28;45219;-49
2021/08/19 03:03:12;;;;;;;;;3.00;1.00;;;;;20.14;51.97;101186.75;5079456;28;45225;-46
2021/08/19 03:05:37;;;;;;;;;3.00;3.00;;;;;20.13;51.73;101190.34;5079771;28;45256;-49
2021/08/19 03:08:03;;;;;;;;;2.00;2.00;;;;;20.13;51.87;101187.66;5078066;28;45878;-48
2021/08/19 03:10:28;;;;;;;;;2.25;2.25;;;;;20.10;51.62;101182.47;5078178;28;46270;-47
2021/08/19 03:12:53;;;;;;;;;3.00;3.00;;;;;20.09;51.87;101181.59;5079418;28;45303;-49
2021/08/19 03:15:19;;;;;;;;;2.25;2.25;;;;;20.11;51.86;101186.88;5078154;28;45476;-51
2021/08/19 03:17:44;;;;;;;;;2.00;2.00;;;;;20.09;51.56;101178.94;5079037;28;45275;-49
2021/08/19 03:20:11;;;;;;;;;2.25;2.25;;;;;20.10;51.40;101182.47;5078425;28;45473;-45
2021/08/19 03:22:37;;;;;;;;;0.75;0.75;;;;;20.09;51.49;101186.94;5082814;28;45437;-48
2021/08/19 03:25:03;;;;;;;;;4.25;3.00;;;;;20.08;52.03;101173.69;5082827;28;45400;-49
2021/08/19 03:27:31;;;;;;;;;2.00;1.75;;;;;20.07;51.63;101179.94;5082556;28;45287;-49
2021/08/19 03:29:57;;;;;;;;;1.00;1.00;;;;;20.06;52.04;101173.78;5082695;27;45231;-45
2021/08/19 03:32:22;;;;;;;;;3.00;3.00;;;;;20.04;51.53;101172.97;5081435;28;45805;-46
2021/08/19 03:34:47;;;;;;;;;2.50;2.25;;;;;20.04;51.86;101180.13;5082653;28;45165;-46
2021/08/19 03:37:13;;;;;;;;;2.00;2.00;;;;;20.04;51.85;101174.78;5082670;28;46046;-48
2021/08/19 03:39:38;;;;;;;;;3.00;3.00;;;;;20.04;51.73;101175.63;5082888;28;45168;-46
2021/08/19 03:42:04;;;;;;;;;2.25;2.00;;;;;20.02;51.54;101174.81;5082434;28;45694;-47
2021/08/19 03:44:29;;;;;;;;;4.25;2.75;;;;;20.04;51.42;101180.13;5081398;28;45258;-45
2021/08/19 03:46:55;;;;;;;;;2.00;1.00;;;;;20.02;52.07;101174.81;5082382;28;45783;-49
2021/08/19 03:49:20;;;;;;;;;2.50;2.50;;;;;20.00;52.12;101173.16;5082275;28;45335;-49
2021/08/19 03:51:46;;;;;;;;;2.00;2.00;;;;;20.00;51.58;101165.16;5082588;27;45302;-50
2021/08/19 03:54:12;;;;;;;;;3.25;3.25;;;;;19.99;51.47;101169.66;5081072;28;45261;-49
2021/08/19 03:56:39;;;;;;;;;1.75;1.75;;;;;19.99;51.86;101174.97;5082182;28;46356;-49
2021/08/19 03:59:09;;;;;;;;;2.00;2.00;;;;;19.95;51.57;101162.75;5082242;28;45405;-48
2021/08/19 04:01:34;;;;;;;;;2.50;2.50;;;;;19.96;51.48;101164.44;5080874;27;45232;-47
2021/08/19 04:04:00;;;;;;;;;2.25;1.50;;;;;19.95;51.51;101165.41;5082148;28;45212;-49
2021/08/19 04:06:25;;;;;;;;;4.25;2.75;;;;;19.92;51.90;101174.41;5082108;28;46077;-48
2021/08/19 04:08:51;;;;;;;;;4.75;3.25;;;;;19.92;51.55;101169.09;5082140;28;45582;-48
2021/08/19 04:11:16;;;;;;;;;1.75;1.75;;;;;19.91;51.61;101169.13;5082256;27;45310;-50
2021/08/19 04:13:41;;;;;;;;;4.50;2.00;;;;;19.90;52.04;101165.63;5082180;28;45302;-49
2021/08/19 04:16:07;;;;;;;;;1.75;1.75;;;;;19.90;52.00;101170.94;5081819;28;46094;-50
2021/08/19 04:18:33;;;;;;;;;3.00;3.00;;;;;19.89;51.71;101163.88;5082005;28;45358;-46
2021/08/19 04:21:00;;;;;;;;;4.00;2.50;;;;;19.87;51.66;101159.56;5081926;28;45502;-48
2021/08/19 04:23:26;;;;;;;;;4.25;3.00;;;;;19.89;51.37;101158.53;5081757;28;45192;-45
2021/08/19 04:25:51;;;;;;;;;2.00;2.00;;;;;19.89;51.77;101158.53;5081600;28;45374;-46
2021/08/19 04:28:16;;;;;;;;;2.00;2.00;;;;;19.87;51.58;101164.88;5081639;28;49239;-47
2021/08/19 04:30:42;;;;;;;;;2.00;2.00;;;;;19.89;51.40;101168.34;5081862;27;45823;-47
2021/08/19 04:33:07;;;;;;;;;2.00;2.00;;;;;19.87;51.84;101159.56;5080706;28;45227;-46
2021/08/19 04:35:33;;;;;;;;;3.25;3.25;;;;;19.91;51.93;101169.13;5081505;27;46864;-45
2021/08/19 04:37:59;;;;;;;;;2.25;2.25;;;;;19.91;51.96;101159.34;5081870;28;45270;-47
2021/08/19 04:40:25;;;;;;;;;3.00;2.75;;;;;19.89;52.17;101157.69;5081632;27;45244;-46
2021/08/19 04:42:50;;;;;;;;;3.25;3.25;;;;;19.91;51.76;101154.00;5081381;28;45427;-47
2021/08/19 04:45:16;;;;;;;;;2.25;2.25;;;;;19.90;51.46;101156.72;5081430;28;46004;-47
2021/08/19 04:47:41;;;;;;;;;2.75;2.75;;;;;19.92;51.56;101163.75;5081324;28;45256;-49
2021/08/19 04:50:07;;;;;;;;;3.00;3.00;;;;;19.88;51.88;101158.63;5081391;28;45390;-45
2021/08/19 04:52:32;;;;;;;;;5.00;5.00;;;;;19.87;51.63;101171.06;5081605;28;45314;-49
2021/08/19 04:54:58;;;;;;;;;5.00;2.50;;;;;19.80;51.73;101170.47;5081101;28;47205;-47
2021/08/19 04:57:23;;;;;;;;;3.00;2.75;;;;;19.81;52.16;101172.19;5081422;28;45325;-47
2021/08/19 04:59:49;;;;;;;;;2.50;2.50;;;;;19.80;51.78;101177.63;5081241;28;45559;-50
2021/08/19 05:02:14;;;;;;;;;4.50;3.50;;;;;19.77;51.76;101173.28;5081083;28;45242;-47
2021/08/19 05:04:39;;;;;;;;;2.25;2.25;;;;;19.76;51.71;101178.66;5081052;28;46433;-48
2021/08/19 05:07:05;;;;;;;;;5.00;5.00;;;;;19.75;52.18;101184.97;5081385;28;45239;-47
2021/08/19 05:09:30;;;;;;;;;3.25;3.25;;;;;19.73;52.01;101189.50;5081488;28;45266;-46
2021/08/19 05:11:55;;;;;;;;;2.75;2.75;;;;;19.71;51.97;101192.22;5079793;27;45285;-47
2021/08/19 05:14:22;;;;;;;;;2.00;2.00;;;;;19.67;51.95;101190.63;5080946;28;45292;-47
2021/08/19 05:16:47;;;;;;;;;4.00;3.00;;;;;19.69;52.50;101195.91;5081291;28;45322;-46
2021/08/19 05:19:12;;;;;;;;;5.00;3.75;;;;;19.64;52.41;101191.63;5080790;28;45228;-48
2021/08/19 05:21:39;;;;;;;;;6.00;4.50;;;;;19.63;52.66;101197.91;5080824;28;45473;-47
2021/08/19 05:24:05;;;;;;;;;4.00;4.00;;;;;19.62;52.64;101192.63;5080957;28;46240;-45
2021/08/19 05:26:30;;;;;;;;;7.25;4.50;;;;;19.61;52.08;101198.91;5081054;28;45449;-50
2021/08/19 05:28:55;;;;;;;;;3.50;3.50;;;;;19.58;52.56;101191.91;5079452;28;45464;-47
2021/08/19 05:31:21;;;;;;;;;5.00;5.00;;;;;19.56;52.25;101190.22;5080619;27;51320;-46
2021/08/19 05:33:47;;;;;;;;;3.00;3.00;;;;;19.56;52.23;101192.91;5080459;28;45256;-45
2021/08/19 05:36:13;;;;;;;;;4.75;4.75;;;;;19.55;52.37;101200.03;5080872;28;45268;-50
2021/08/19 05:38:39;;;;;;;;;3.50;3.50;;;;;19.54;52.26;101195.66;5080784;28;45357;-49
2021/08/19 05:41:05;;;;;;;;;4.00;4.00;;;;;19.51;52.75;101194.91;5080729;28;45442;-49
2021/08/19 05:43:31;;;;;;;;;4.00;4.00;;;;;19.51;52.42;101192.25;5080139;28;45251;-46
2021/08/19 05:45:56;;;;;;;;;4.75;4.00;;;;;19.52;52.27;101202.84;5080648;28;45249;-48
2021/08/19 05:48:22;;;;;;;;;5.75;4.75;;;;;19.52;52.62;101201.97;5080462;28;45392;-48
2021/08/19 05:50:47;;;;;;;;;5.50;4.75;;;;;19.48;52.45;101199.47;5080628;28;45195;-48
2021/08/19 05:53:12;;;;;;;;;4.00;4.00;;;;;19.50;52.87;101199.38;5079276;28;45388;-49
2021/08/19 05:55:38;;;;;;;;;6.00;3.50;;;;;19.52;52.30;101207.31;5080494;28;45952;-48
2021/08/19 05:58:03;;;;;;;;;5.00;4.00;;;;;19.51;52.87;101200.25;5079378;28;45371;-48
2021/08/19 06:00:28;;;;;;;;;6.00;5.50;;;;;19.49;52.31;101193.16;5080583;28;45466;-48
2021/08/19 06:02:54;;;;;;;;;7.50;5.00;;;;;19.53;52.69;101201.06;5080184;28;45225;-49
2021/08/19 06:05:19;;;;;;;;;5.75;5.75;;;;;19.52;52.47;101200.19;5080532;28;45350;-50
2021/08/19 06:07:45;;;;;;;;;5.75;5.75;;;;;19.53;52.96;101201.06;5080584;28;45279;-45
2021/08/19 06:10:11;;;;;;;;;6.75;5.75;;;;;19.52;52.60;101196.66;5080228;28;45384;-50
2021/08/19 06:12:37;;;;;;;;;7.00;5.25;;;;;19.52;52.93;101194.88;5080018;28;46146;-47
2021/08/19 06:15:03;;;;;;;;;4.50;4.50;;;;;19.47;52.89;101200.38;5078999;28;45321;-48
2021/08/19 06:17:29;;;;;;;;;3.00;3.00;;;;;19.46;52.66;101196.00;5080313;28;45347;-50
2021/08/19 06:19:54;;;;;;;;;6.75;5.50;;;;;19.46;52.96;101198.66;5078702;28;45966;-47
2021/08/19 06:22:20;;;;;;;;;4.00;4.00;;;;;19.45;52.79;101196.06;5080028;28;45338;-47
2021/08/19 06:24:45;;;;;;;;;5.75;4.50;;;;;19.33;52.61;101181.47;5080154;27;45255;-47
2021/08/19 06:27:10;;;;;;;;;6.75;5.25;;;;;19.41;52.96;101198.00;5080140;28;45421;-49
2021/08/19 06:29:36;;;;;;;;;4.00;4.00;;;;;19.43;52.57;101198.81;5079949;28;45390;-46
2021/08/19 06:32:01;;;;;;;;;5.00;5.00;;;;;19.41;52.81;101189.16;5079909;28;46003;-47
2021/08/19 06:34:26;;;;;;;;;6.00;6.00;;;;;19.40;52.76;101193.59;5079643;28;45290;-48
2021/08/19 06:36:52;;;;;;;;;6.75;5.25;;;;;19.39;52.52;101189.19;5079096;28;45358;-49
2021/08/19 06:39:18;;;;;;;;;5.25;4.50;;;;;19.39;52.81;101191.84;5079989;28;45380;-47
2021/08/19 06:41:44;;;;;;;;;4.25;4.25;;;;;19.40;52.36;101198.06;5079770;28;47205;-48
2021/08/19 06:44:10;;;;;;;;;7.00;6.00;;;;;19.41;52.87;101197.16;5079804;28;45215;-49
2021/08/19 06:46:35;;;;;;;;;5.75;5.75;;;;;19.39;52.95;101197.19;5080001;28;45279;-45
2021/08/19 06:49:00;;;;;;;;;6.50;5.00;;;;;19.36;52.66;101191.13;5078267;28;45308;-45
2021/08/19 06:51:26;;;;;;;;;8.25;6.25;;;;;19.37;52.24;101184.88;5079802;28;46335;-47
2021/08/19 06:53:51;;;;;;;;;5.50;5.50;;;;;19.38;52.80;101197.25;5079753;28;45255;-48
2021/08/19 06:56:17;;;;;;;;;6.75;5.75;;;;;19.38;52.57;101197.25;5080728;28;45359;-46
2021/08/19 06:58:42;;;;;;;;;5.00;5.00;;;;;19.36;52.63;101191.13;5083356;28;45586;-47
2021/08/19 07:01:07;;;;;;;;;8.75;7.50;;;;;19.35;52.91;101198.25;5081853;27;46158;-49
2021/08/19 07:03:33;;;;;;;;;6.50;5.00;;;;;19.37;52.62;101201.72;5081546;28;45790;-49
2021/08/19 07:05:58;;;;;;;;;3.50;3.25;;;;;19.37;52.57;101201.72;5083419;28;45251;-46
2021/08/19 07:08:23;;;;;;;;;9.00;7.00;;;;;19.36;52.78;101207.09;5082877;28;45265;-45
2021/08/19 07:10:49;;;;;;;;;6.00;6.00;;;;;19.38;52.61;101202.59;5083228;27;46370;-50
2021/08/19 07:13:16;;;;;;;;;5.00;5.00;;;;;19.38;52.28;101199.94;5081455;28;45754;-47
2021/08/19 07:15:42;;;;;;;;;6.00;6.00;;;;;19.36;52.51;101208.00;5083184;28;45264;-45
2021/08/19 07:18:08;;;;;;;;;5.75;5.75;;;;;19.37;52.92;101201.72;5082675;28;45189;-48
2021/08/19 07:20:34;;;;;;;;;5.50;5.25;;;;;19.37;52.66;101204.41;5082926;27;45394;-47
2021/08/19 07:22:59;;;;;;;;;6.00;5.00;;;;;19.36;52.45;101194.66;5081275;28;45241;-50
2021/08/19 07:25:25;;;;;;;;;8.75;6.50;;;;;19.35;52.76;101203.59;5082981;28;45489;-46
2021/08/19 07:27:51;;;;;;;;;4.75;4.75;;;;;19.36;52.87;101201.78;5082776;28;45368;-51
2021/08/19 07:30:18;;;;;;;;;5.00;4.50;;;;;19.38;52.47;101200.78;5082727;27;46385;-45
2021/08/19 07:32:43;;;;;;;;;7.25;7.25;;;;;19.37;52.50;101193.75;5082211;28;45307;-49
2021/08/19 07:35:09;;;;;;;;;7.25;6.00;;;;;19.35;52.98;101200.06;5082797;28;45309;-49
2021/08/19 07:37:44;;;;;;;;;6.50;6.00;;;;;19.36;52.63;101194.66;5082575;28;45532;-46
2021/08/19 07:40:10;;;;;;;;;7.00;7.00;;;;;19.34;52.65;101204.50;5082231;27;46265;-48
2021/08/19 07:42:35;;;;;;;;;9.50;6.50;;;;;19.36;52.85;101199.13;5081174;28;45353;-45
2021/08/19 07:45:00;;;;;;;;;7.00;6.00;;;;;19.37;52.47;101190.19;5082567;28;45200;-47
2021/08/19 07:47:26;;;;;;;;;6.75;6.75;;;;;19.38;52.84;101186.59;5082342;28;47105;-49
2021/08/19 07:49:51;;;;;;;;;7.00;7.00;;;;;19.39;52.86;101191.84;5082173;27;47062;-48
2021/08/19 07:52:16;;;;;;;;;8.25;7.00;;;;;19.40;52.98;101185.59;5082417;28;45204;-46
2021/08/19 07:54:41;;;;;;;;;8.75;6.00;;;;;19.43;52.67;101184.59;5082572;28;45267;-47
2021/08/19 07:57:07;;;;;;;;;6.25;6.25;;;;;19.47;52.62;101189.72;5080923;28;45598;-47
2021/08/19 07:59:32;;;;;;;;;8.00;6.75;;;;;19.49;52.43;101187.84;5082241;28;47087;-48
2021/08/19 08:01:59;;;;;;;;;9.50;8.75;;;;;19.52;52.85;101188.66;5082226;27;45203;-47
2021/08/19 08:04:24;;;;;;;;;9.50;8.00;;;;;19.56;52.86;101193.78;5081152;28;45322;-49
2021/08/19 08:06:49;;;;;;;;;8.00;6.75;;;;;19.59;53.02;101192.78;5080558;28;45511;-50
2021/08/19 08:09:15;;;;;;;;;7.25;6.25;;;;;19.64;52.98;101201.44;5080695;28;46007;-50
2021/08/19 08:11:41;;;;;;;;;9.75;7.75;;;;;19.64;52.94;101202.28;5082189;27;45294;-50
2021/08/19 08:14:06;;;;;;;;;10.00;7.25;;;;;19.66;53.01;101199.56;5080862;28;45333;-51
2021/08/19 08:16:32;;;;;;;;;8.00;8.00;;;;;19.71;52.81;101199.34;5081957;28;45260;-49
2021/08/19 08:19:01;;;;;;;;;11.50;8.00;;;;;19.73;52.50;101201.00;5081687;28;45341;-49
2021/08/19 08:21:27;;;;;;;;;8.75;8.75;;;;;19.75;52.81;101209.81;5081692;27;45280;-47
2021/08/19 08:23:53;;;;;;;;;9.00;8.75;;;;;19.76;52.42;101202.66;5081724;28;45575;-48
2021/08/19 08:26:20;;;;;;;;;7.00;6.25;;;;;19.77;52.41;101209.72;5081793;28;45301;-49
2021/08/19 08:28:48;;;;;;;;;7.50;7.00;;;;;19.79;52.64;101205.22;5081555;27;47184;-46
2021/08/19 08:31:13;;;;;;;;;7.25;7.25;;;;;19.80;52.33;101209.63;5081626;28;45354;-49
2021/08/19 08:33:38;;;;;;;;;9.00;9.00;;;;;19.83;52.92;101203.31;5081674;28;46405;-50
2021/08/19 08:36:04;;;;;;;;;9.75;7.75;;;;;19.85;52.75;101207.63;5081731;27;45323;-49
2021/08/19 08:38:31;;;;;;;;;9.00;7.00;;;;;19.87;52.44;101212.88;5081603;28;45976;-51
2021/08/19 08:40:56;;;;;;;;;9.00;8.00;;;;;19.88;52.60;101203.97;5081338;27;45229;-47
2021/08/19 08:43:23;;;;;;;;;7.25;6.75;;;;;19.90;52.84;101213.63;5081554;28;45230;-47
2021/08/19 08:45:50;;;;;;;;;8.50;6.00;;;;;19.90;52.74;101202.94;5081350;28;45250;-49
2021/08/19 08:48:22;;;;;;;;;9.00;8.25;;;;;19.95;52.21;101213.41;5081164;28;46197;-50
2021/08/19 08:50:49;;;;;;;;;7.25;7.00;;;;;19.97;52.77;101212.41;5081417;27;45243;-51
2021/08/19 08:53:15;;;;;;;;;9.75;8.50;;;;;20.02;52.71;101222.84;5081502;28;45221;-51
2021/08/19 08:55:42;;;;;;;;;9.75;7.75;;;;;20.03;52.11;101215.72;5081357;28;45513;-51
2021/08/19 08:58:08;;;;;;;;;7.75;6.50;;;;;20.05;52.70;101211.16;5081082;28;46206;-47
2021/08/19 09:00:34;;;;;;;;;8.25;8.25;;;;;20.05;52.49;101217.38;5079888;28;45346;-51
2021/08/19 09:03:00;;;;;;;;;9.00;8.75;;;;;20.07;52.27;101212.81;5081053;28;45373;-50
2021/08/19 09:05:27;;;;;;;;;9.75;7.00;;;;;20.08;52.65;101222.56;5081306;28;45390;-51
2021/08/19 09:08:00;;;;;;;;;9.00;8.00;;;;;20.11;52.59;101222.44;5081092;28;46147;-49
2021/08/19 09:10:29;;;;;;;;;9.00;7.00;;;;;20.10;52.15;101226.03;5081167;28;45260;-50
2021/08/19 09:12:55;;;;;;;;;8.25;8.25;;;;;20.10;52.42;101222.47;5080928;28;45417;-51
2021/08/19 09:15:23;;;;;;;;;9.75;7.00;;;;;20.08;52.34;101233.22;5081040;28;45362;-45
2021/08/19 09:17:53;;;;;;;;;5.00;5.00;;;;;20.08;52.75;101225.22;5080106;28;46376;-46
2021/08/19 09:20:30;;;;;;;;;7.00;6.00;;;;;20.07;52.37;101235.97;5080726;27;45245;-50
2021/08/19 09:23:05;;;;;;;;;6.75;6.00;;;;;20.07;51.82;101236.81;5080873;28;45539;-48
2021/08/19 09:25:35;;;;;;;;;5.75;5.75;;;;;20.06;51.93;101237.78;5079503;28;45406;-47
2021/08/19 09:28:19;;;;;;;;;5.50;4.25;;;;;20.05;52.29;101230.72;5080360;28;46258;-46
2021/08/19 09:30:48;;;;;;;;;7.25;7.00;;;;;20.05;52.45;101230.72;5080551;28;45248;-47
2021/08/19 09:33:16;;;;;;;;;5.75;5.50;;;;;20.06;51.96;101227.13;5080532;28;45333;-46
2021/08/19 09:35:43;;;;;;;;;6.00;6.00;;;;;20.07;51.71;101228.81;5080513;27;45268;-53
2021/08/19 09:38:13;;;;;;;;;5.75;5.75;;;;;20.02;52.12;101222.84;5080537;28;45334;-47
2021/08/19 09:40:39;;;;;;;;;8.75;7.00;;;;;20.07;52.11;101226.16;5079032;28;45273;-47
2021/08/19 09:43:05;;;;;;;;;10.00;7.50;;;;;20.07;52.22;101222.63;5080613;28;45340;-48
2021/08/19 09:45:30;;;;;;;;;6.75;6.75;;;;;20.08;52.09;101214.56;5080441;28;45339;-48
2021/08/19 09:48:07;;;;;;;;;7.00;5.25;;;;;20.09;52.10;101232.28;5080283;28;45359;-47
2021/08/19 09:50:34;;;;;;;;;7.50;6.25;;;;;20.09;51.56;101216.28;5080409;27;45382;-48
2021/08/19 09:53:15;;;;;;;;;6.00;6.00;;;;;20.10;52.17;101219.81;5080483;28;45258;-46
2021/08/19 09:55:41;;;;;;;;;6.00;6.00;;;;;20.11;51.80;101226.88;5080269;28;45319;-48
2021/08/19 09:58:07;;;;;;;;;5.50;5.50;;;;;20.09;51.62;101224.28;5079854;28;46226;-48
2021/08/19 10:00:40;;;;;;;;;7.00;6.25;;;;;20.08;51.81;101224.38;5080222;27;45410;-50
2021/08/19 10:03:06;;;;;;;;;7.00;7.00;;;;;20.07;52.03;101218.16;5080181;28;45379;-48
2021/08/19 10:05:31;;;;;;;;;8.00;7.00;;;;;20.04;51.84;101214.78;5078879;28;45598;-48
2021/08/19 10:07:59;;;;;;;;;9.50;7.75;;;;;20.04;51.92;101228.13;5080046;28;46193;-50
2021/08/19 10:10:26;;;;;;;;;9.50;8.00;;;;;20.03;51.75;101224.56;5079956;28;45309;-47
2021/08/19 10:12:52;;;;;;;;;8.50;5.75;;;;;20.01;51.96;101217.59;5079985;28;45268;-48
2021/08/19 10:15:17;;;;;;;;;4.75;4.75;;;;;20.01;51.78;101205.09;5078805;28;45549;-46
2021/08/19 10:17:47;;;;;;;;;4.00;4.00;;;;;20.02;51.75;101209.50;5079711;28;45223;-46
2021/08/19 10:20:18;;;;;;;;;5.00;5.00;;;;;20.01;51.97;101209.59;5080219;28;45310;-49
2021/08/19 10:22:45;;;;;;;;;5.50;5.50;;;;;19.98;51.40;101213.25;5079872;28;45234;-47
2021/08/19 10:25:11;;;;;;;;;4.00;4.00;;;;;19.99;51.51;101217.66;5080149;28;45314;-49
2021/08/19 10:27:36;;;;;;;;;4.00;4.00;;;;;19.96;52.05;101218.66;5079627;28;46021;-50
2021/08/19 10:30:06;;;;;;;;;5.00;5.00;;;;;20.01;51.78;101220.25;5080027;28;45262;-47
2021/08/19 10:32:35;;;;;;;;;4.50;4.00;;;;;19.98;51.56;101215.94;5083369;28;45288;-49
2021/08/19 10:35:14;;;;;;;;;5.75;4.50;;;;;20.03;51.64;101215.72;5083584;27;45466;-48
2021/08/19 10:37:45;;;;;;;;;8.25;5.50;;;;;20.04;51.44;101214.78;5083275;28;45383;-48
2021/08/19 10:40:20;;;;;;;;;3.75;2.00;;;;;20.02;51.98;101212.16;5083247;27;45389;-54
2021/08/19 10:42:48;;;;;;;;;4.75;4.25;;;;;20.02;51.85;101211.31;5083448;28;45452;-50
2021/08/19 10:45:29;;;;;;;;;8.50;6.00;;;;;20.03;51.59;101213.91;5083256;28;45318;-48
2021/08/19 10:48:00;;;;;;;;;5.50;5.50;;;;;20.01;51.40;101220.25;5082982;28;45943;-46
2021/08/19 10:50:35;;;;;;;;;6.50;5.50;;;;;20.01;51.60;101210.44;5083059;27;45184;-49
2021/08/19 10:53:27;;;;;;;;;6.00;4.75;;;;;20.01;51.54;101218.44;5083264;28;45282;-46
2021/08/19 10:55:55;;;;;;;;;9.75;6.75;;;;;20.02;51.54;101211.31;5083067;28;46115;-51
2021/08/19 10:58:26;;;;;;;;;4.50;4.50;;;;;20.03;52.06;101221.06;5082783;28;47131;-49
2021/08/19 11:00:53;;;;;;;;;6.00;6.00;;;;;20.04;51.52;101215.66;5081943;28;45351;-51
2021/08/19 11:03:46;;;;;;;;;6.00;6.00;;;;;20.05;51.86;101228.06;5082870;28;45325;-50
2021/08/19 11:06:14;;;;;;;;;4.50;4.50;;;;;20.07;51.88;101212.81;5081174;28;45353;-50
2021/08/19 11:08:45;;;;;;;;;4.00;4.00;;;;;20.09;52.08;101208.28;5082831;28;46323;-50
2021/08/19 11:11:13;;;;;;;;;3.50;3.50;;;;;20.07;51.56;101211.97;5082961;27;45252;-51
2021/08/19 11:13:40;;;;;;;;;7.00;5.00;;;;;20.10;51.41;101215.34;5081703;28;45311;-49
2021/08/19 11:16:12;;;;;;;;;5.00;5.00;;;;;20.10;51.95;101220.69;5082709;28;45379;-52
2021/08/19 11:18:40;;;;;;;;;5.25;5.00;;;;;20.10;51.87;101220.69;5082701;28;46283;-52
2021/08/19 11:21:08;;;;;;;;;3.25;3.25;;;;;20.12;51.38;101212.63;5082491;27;45356;-50